createdAt,value
2023-04-13T00:00:26.648Z,1.17
2023-04-13T00:01:38.100Z,1.20
2023-04-13T00:02:55.999Z,1.20
2023-04-13T00:04:07.664Z,0.80
2023-04-13T00:05:19.338Z,1.88
2023-04-13T00:06:30.798Z,1.27
2023-04-13T00:07:43.440Z,2.20
2023-04-13T00:08:55.609Z,1.83
2023-04-13T00:10:08.764Z,1.55
2023-04-13T00:11:20.164Z,1.00
2023-04-13T00:12:33.447Z,1.15
2023-04-13T00:13:47.491Z,1.23
2023-04-13T00:14:59.046Z,0.98
2023-04-13T00:16:11.123Z,1.13
2023-04-13T00:17:22.654Z,0.98
2023-04-13T00:18:34.465Z,1.15
2023-04-13T00:19:48.223Z,0.70
2023-04-13T00:21:00.153Z,0.80
2023-04-13T00:22:11.838Z,0.75
2023-04-13T00:23:23.387Z,1.00
2023-04-13T00:24:37.063Z,1.02
2023-04-13T00:25:48.504Z,1.00
2023-04-13T00:27:01.300Z,1.27
2023-04-13T00:28:12.782Z,1.10
2023-04-13T00:29:24.211Z,0.80
2023-04-13T00:30:36.169Z,1.23
2023-04-13T00:31:47.732Z,1.20
2023-04-13T00:32:59.207Z,0.98
2023-04-13T00:34:11.162Z,1.60
2023-04-13T00:35:26.586Z,1.35
2023-04-13T00:36:38.847Z,1.27
2023-04-13T00:37:50.697Z,0.88
2023-04-13T00:39:02.131Z,1.30
2023-04-13T00:40:13.968Z,1.00
2023-04-13T00:41:26.118Z,1.25
2023-04-13T00:42:37.655Z,1.10
2023-04-13T00:43:49.044Z,1.40
2023-04-13T00:45:00.481Z,1.40
2023-04-13T00:46:12.859Z,1.17
2023-04-13T00:47:36.061Z,1.15
2023-04-13T00:48:48.433Z,1.15
2023-04-13T00:50:04.723Z,0.90
2023-04-13T00:51:16.851Z,1.10
2023-04-13T00:52:29.102Z,1.20
2023-04-13T00:53:42.319Z,1.00
2023-04-13T00:54:56.475Z,1.00
2023-04-13T00:56:08.516Z,0.80
2023-04-13T00:57:20.119Z,0.85
2023-04-13T00:58:32.683Z,1.10
2023-04-13T00:59:44.441Z,0.73
2023-04-13T01:00:55.842Z,0.60
2023-04-13T01:02:07.763Z,0.80
2023-04-13T01:03:20.620Z,1.13
2023-04-13T01:04:32.461Z,0.88
2023-04-13T01:05:56.531Z,0.90
2023-04-13T01:07:08.068Z,0.98
2023-04-13T01:08:19.451Z,1.38
2023-04-13T01:09:41.152Z,1.95
2023-04-13T01:11:07.167Z,1.08
2023-04-13T01:12:26.431Z,1.85
2023-04-13T01:13:42.341Z,1.92
2023-04-13T01:15:19.953Z,1.35
2023-04-13T01:16:34.503Z,1.58
2023-04-13T01:19:47.359Z,1.20
2023-04-13T01:21:00.170Z,1.60
2023-04-13T01:22:14.477Z,0.80
2023-04-13T01:23:25.908Z,1.08
2023-04-13T01:24:44.136Z,1.00
2023-04-13T01:25:57.810Z,1.58
2023-04-13T01:27:16.512Z,0.75
2023-04-13T01:28:28.835Z,1.33
2023-04-13T01:29:40.618Z,1.02
2023-04-13T01:30:53.218Z,1.10
2023-04-13T01:32:05.398Z,0.90
2023-04-13T01:33:16.989Z,1.35
2023-04-13T01:34:28.753Z,1.40
2023-04-13T01:35:40.285Z,1.48
2023-04-13T01:36:51.832Z,1.58
2023-04-13T01:38:03.310Z,1.77
2023-04-13T01:39:21.997Z,1.20
2023-04-13T01:40:35.002Z,1.30
2023-04-13T01:41:46.956Z,1.20
2023-04-13T01:42:58.400Z,0.88
2023-04-13T01:44:09.813Z,1.02
2023-04-13T01:45:25.594Z,1.48
2023-04-13T01:46:37.787Z,1.20
2023-04-13T01:47:55.527Z,1.25
2023-04-13T01:49:08.705Z,1.08
2023-04-13T01:50:26.828Z,1.70
2023-04-13T01:51:38.633Z,1.35
2023-04-13T01:52:50.264Z,1.65
2023-04-13T01:54:21.932Z,1.13
2023-04-13T01:55:33.672Z,1.40
2023-04-13T01:56:45.521Z,1.33
2023-04-13T01:57:59.615Z,1.35
2023-04-13T01:59:11.104Z,1.95
2023-04-13T02:00:22.503Z,2.20
2023-04-13T02:01:34.080Z,2.15
2023-04-13T02:02:46.478Z,2.97
2023-04-13T02:03:58.449Z,1.92
2023-04-13T02:05:10.574Z,1.98
2023-04-13T02:06:22.048Z,2.08
2023-04-13T02:07:34.675Z,1.67
2023-04-13T02:08:46.307Z,1.42
2023-04-13T02:09:57.718Z,1.50
2023-04-13T02:11:10.220Z,1.58
2023-04-13T02:12:21.728Z,1.27
2023-04-13T02:13:33.262Z,1.10
2023-04-13T02:14:44.702Z,0.70
2023-04-13T02:15:56.220Z,1.10
2023-04-13T02:17:08.419Z,1.13
2023-04-13T02:18:19.934Z,1.10
2023-04-13T02:19:31.665Z,1.50
2023-04-13T02:20:43.167Z,1.42
2023-04-13T02:21:55.605Z,0.93
2023-04-13T02:23:08.800Z,1.20
2023-04-13T02:24:20.682Z,1.20
2023-04-13T02:25:32.088Z,1.52
2023-04-13T02:26:43.672Z,1.42
2023-04-13T02:27:55.535Z,1.10
2023-04-13T02:29:07.936Z,1.08
2023-04-13T02:30:19.446Z,1.20
2023-04-13T02:31:31.975Z,2.03
2023-04-13T02:32:47.586Z,2.67
2023-04-13T02:33:59.491Z,2.97
2023-04-13T02:35:11.474Z,2.88
2023-04-13T02:36:25.002Z,3.35
2023-04-13T02:37:38.127Z,1.92
2023-04-13T02:38:49.568Z,2.67
2023-04-13T02:40:01.087Z,1.42
2023-04-13T02:41:12.632Z,2.03
2023-04-13T02:42:24.316Z,1.40
2023-04-13T02:43:35.820Z,2.30
2023-04-13T02:44:47.555Z,1.95
2023-04-13T02:45:59.700Z,2.42
2023-04-13T02:47:11.276Z,1.98
2023-04-13T02:48:22.684Z,2.63
2023-04-13T02:49:34.174Z,2.00
2023-04-13T02:50:46.362Z,1.67
2023-04-13T02:51:57.790Z,2.53
2023-04-13T02:53:09.214Z,3.28
2023-04-13T02:54:20.770Z,3.35
2023-04-13T02:55:36.631Z,3.53
2023-04-13T02:56:49.259Z,2.88
2023-04-13T02:58:00.712Z,3.42
2023-04-13T02:59:12.559Z,2.72
2023-04-13T03:00:25.681Z,2.65
2023-04-13T03:01:37.683Z,2.58
2023-04-13T03:02:49.706Z,2.30
2023-04-13T03:04:01.556Z,2.97
2023-04-13T03:05:13.931Z,1.70
2023-04-13T03:06:26.085Z,3.33
2023-04-13T03:07:37.625Z,2.92
2023-04-13T03:08:51.335Z,1.85
2023-04-13T03:10:05.399Z,1.40
2023-04-13T03:11:17.863Z,1.17
2023-04-13T03:12:30.261Z,0.70
2023-04-13T03:13:41.672Z,1.15
2023-04-13T03:14:54.105Z,1.02
2023-04-13T03:16:05.837Z,2.15
2023-04-13T03:17:19.707Z,2.08
2023-04-13T03:18:34.573Z,3.78
2023-04-13T03:19:47.552Z,4.20
2023-04-13T03:20:58.983Z,3.58
2023-04-13T03:22:11.252Z,2.72
2023-04-13T03:23:23.160Z,4.85
2023-04-13T03:24:35.876Z,3.47
2023-04-13T03:25:47.343Z,2.90
2023-04-13T03:26:58.792Z,3.45
2023-04-13T03:28:10.227Z,3.22
2023-04-13T03:29:21.726Z,3.22
2023-04-13T03:30:33.249Z,3.22
2023-04-13T03:31:44.770Z,3.17
2023-04-13T03:32:56.738Z,3.28
2023-04-13T03:34:08.169Z,2.80
2023-04-13T03:35:19.593Z,2.72
2023-04-13T03:36:31.597Z,2.92
2023-04-13T03:37:44.934Z,3.60
2023-04-13T03:38:56.502Z,2.85
2023-04-13T03:40:10.965Z,2.67
2023-04-13T03:41:23.075Z,2.58
2023-04-13T03:42:34.552Z,2.50
2023-04-13T03:43:46.068Z,4.70
2023-04-13T03:44:57.598Z,2.55
2023-04-13T03:46:09.161Z,3.42
2023-04-13T03:47:20.893Z,2.63
2023-04-13T03:48:32.340Z,3.42
2023-04-13T03:49:43.764Z,4.10
2023-04-13T03:50:56.285Z,2.63
2023-04-13T03:52:07.730Z,2.40
2023-04-13T03:53:19.216Z,2.47
2023-04-13T03:54:30.632Z,2.30
2023-04-13T03:55:42.081Z,3.30
2023-04-13T03:56:53.843Z,2.50
2023-04-13T03:58:05.327Z,2.40
2023-04-13T03:59:16.749Z,2.08
2023-04-13T04:00:30.887Z,2.95
2023-04-13T04:01:42.412Z,3.08
2023-04-13T04:02:53.963Z,2.28
2023-04-13T04:04:06.051Z,3.88
2023-04-13T04:05:17.666Z,4.07
2023-04-13T04:06:29.247Z,5.00
2023-04-13T04:07:40.674Z,5.25
2023-04-13T04:08:52.223Z,5.85
2023-04-13T04:10:03.869Z,3.60
2023-04-13T04:11:15.973Z,2.67
2023-04-13T04:12:27.425Z,3.72
2023-04-13T04:13:38.848Z,2.65
2023-04-13T04:14:50.319Z,3.47
2023-04-13T04:16:03.533Z,3.78
2023-04-13T04:17:15.089Z,3.85
2023-04-13T04:18:27.074Z,3.15
2023-04-13T04:19:38.526Z,3.00
2023-04-13T04:20:50.523Z,2.53
2023-04-13T04:22:05.392Z,2.65
2023-04-13T04:23:19.757Z,2.30
2023-04-13T04:24:31.458Z,2.50
2023-04-13T04:25:42.918Z,2.83
2023-04-13T04:26:55.178Z,3.08
2023-04-13T04:28:06.736Z,9.82
2023-04-13T04:29:22.146Z,7.32
2023-04-13T04:30:34.042Z,7.00
2023-04-13T04:31:45.670Z,3.42
2023-04-13T04:32:57.521Z,4.63
2023-04-13T04:34:10.652Z,4.65
2023-04-13T04:35:26.390Z,3.15
2023-04-13T04:36:41.902Z,4.72
2023-04-13T04:37:55.206Z,3.05
2023-04-13T04:39:07.865Z,3.13
2023-04-13T04:40:19.380Z,4.10
2023-04-13T04:41:31.467Z,5.45
2023-04-13T04:42:42.983Z,4.65
2023-04-13T04:43:56.860Z,4.93
2023-04-13T04:45:09.295Z,4.80
2023-04-13T04:46:22.255Z,5.05
2023-04-13T04:47:42.155Z,5.20
2023-04-13T04:48:54.443Z,5.15
2023-04-13T04:50:07.927Z,4.85
2023-04-13T04:51:24.822Z,5.25
2023-04-13T04:52:36.527Z,6.18
2023-04-13T04:53:47.991Z,5.10
2023-04-13T04:54:59.434Z,6.63
2023-04-13T04:56:10.968Z,7.82
2023-04-13T04:57:22.376Z,7.55
2023-04-13T04:58:33.781Z,8.15
2023-04-13T04:59:45.239Z,7.07
2023-04-13T05:00:57.189Z,10.70
2023-04-13T05:02:08.766Z,9.18
2023-04-13T05:03:21.103Z,8.63
2023-04-13T05:04:34.700Z,7.03
2023-04-13T05:05:46.200Z,6.10
2023-04-13T05:06:58.787Z,5.72
2023-04-13T05:08:11.729Z,4.28
2023-04-13T05:09:23.235Z,4.20
2023-04-13T05:10:34.659Z,6.07
2023-04-13T05:11:46.115Z,8.00
2023-04-13T05:12:57.654Z,7.72
2023-04-13T05:14:09.119Z,9.38
2023-04-13T05:15:20.874Z,10.77
2023-04-13T05:16:34.316Z,10.85
2023-04-13T05:17:46.930Z,10.82
2023-04-13T05:18:58.711Z,8.50
2023-04-13T05:20:11.047Z,9.40
2023-04-13T05:21:23.026Z,11.07
2023-04-13T05:22:34.575Z,8.80
2023-04-13T05:23:46.630Z,9.85
2023-04-13T05:24:58.141Z,11.82
2023-04-13T05:26:10.442Z,7.80
2023-04-13T05:27:22.070Z,3.00
2023-04-13T05:28:34.336Z,3.72
2023-04-13T05:29:48.127Z,5.20
2023-04-13T05:31:02.834Z,4.50
2023-04-13T05:32:14.287Z,6.00
2023-04-13T05:33:26.529Z,4.25
2023-04-13T05:34:38.330Z,2.70
2023-04-13T05:35:49.890Z,3.78
2023-04-13T05:37:02.825Z,4.47
2023-04-13T05:38:14.268Z,3.28
2023-04-13T05:39:28.905Z,3.67
2023-04-13T05:40:40.436Z,3.63
2023-04-13T05:41:51.915Z,2.20
2023-04-13T05:43:03.464Z,1.75
2023-04-13T05:44:14.966Z,1.90
2023-04-13T05:45:26.433Z,2.30
2023-04-13T05:46:37.866Z,1.33
2023-04-13T05:47:51.656Z,2.10
2023-04-13T05:49:03.753Z,2.10
2023-04-13T05:50:15.262Z,2.45
2023-04-13T05:51:30.922Z,3.72
2023-04-13T05:52:47.641Z,1.27
2023-04-13T05:53:59.151Z,2.58
2023-04-13T05:55:11.761Z,3.70
2023-04-13T05:56:25.637Z,2.58
2023-04-13T05:57:37.128Z,1.40
2023-04-13T05:58:52.461Z,2.22
2023-04-13T06:00:08.087Z,1.80
2023-04-13T06:01:22.445Z,7.80
2023-04-13T06:02:37.229Z,16.20
2023-04-13T06:03:48.957Z,13.55
2023-04-13T06:05:02.105Z,6.50
2023-04-13T06:06:18.844Z,6.95
2023-04-13T06:07:32.736Z,3.33
2023-04-13T06:08:44.294Z,3.00
2023-04-13T06:09:55.733Z,1.77
2023-04-13T06:11:09.487Z,3.22
2023-04-13T06:12:20.921Z,17.33
2023-04-13T06:13:32.508Z,5.80
2023-04-13T06:14:44.224Z,3.38
2023-04-13T06:15:56.896Z,2.08
2023-04-13T06:17:08.504Z,2.47
2023-04-13T06:18:20.090Z,1.98
2023-04-13T06:19:34.352Z,2.38
2023-04-13T06:20:46.103Z,2.50
2023-04-13T06:22:00.400Z,2.92
2023-04-13T06:23:11.878Z,3.85
2023-04-13T06:24:25.691Z,2.47
2023-04-13T06:25:40.621Z,1.98
2023-04-13T06:26:52.307Z,3.20
2023-04-13T06:28:04.628Z,2.70
2023-04-13T06:29:16.093Z,2.47
2023-04-13T06:30:28.766Z,2.25
2023-04-13T06:31:42.391Z,1.75
2023-04-13T06:32:56.144Z,1.90
2023-04-13T06:34:07.652Z,2.88
2023-04-13T06:35:19.173Z,2.83
2023-04-13T06:36:30.676Z,1.98
2023-04-13T06:37:42.435Z,2.30
2023-04-13T06:38:54.444Z,1.50
2023-04-13T06:40:12.635Z,1.45
2023-04-13T06:41:26.725Z,1.27
2023-04-13T06:42:41.092Z,1.75
2023-04-13T06:43:55.084Z,1.75
2023-04-13T06:45:09.838Z,1.40
2023-04-13T06:46:21.948Z,2.13
2023-04-13T06:47:33.518Z,2.55
2023-04-13T06:48:44.922Z,1.42
2023-04-13T06:49:57.743Z,1.52
2023-04-13T06:51:09.189Z,1.90
2023-04-13T06:52:23.626Z,3.00
2023-04-13T06:53:35.052Z,1.75
2023-04-13T06:54:47.764Z,2.42
2023-04-13T06:55:59.219Z,1.60
2023-04-13T06:57:10.659Z,1.67
2023-04-13T06:58:23.448Z,2.17
2023-04-13T06:59:34.918Z,1.50
2023-04-13T07:00:47.655Z,1.25
2023-04-13T07:02:05.004Z,1.83
2023-04-13T07:03:21.450Z,2.85
2023-04-13T07:04:34.079Z,2.58
2023-04-13T07:07:12.126Z,1.20
2023-04-13T07:08:23.817Z,1.85
2023-04-13T07:09:35.341Z,1.25
2023-04-13T07:10:48.565Z,1.42
2023-04-13T07:12:04.091Z,1.17
2023-04-13T07:13:15.953Z,1.15
2023-04-13T07:14:29.772Z,1.23
2023-04-13T07:15:42.699Z,2.17
2023-04-13T07:16:54.198Z,1.40
2023-04-13T07:18:05.755Z,0.85
2023-04-13T07:19:20.455Z,0.88
2023-04-13T07:20:31.994Z,1.10
2023-04-13T07:21:43.573Z,1.02
2023-04-13T07:22:55.059Z,1.10
2023-04-13T07:24:09.227Z,1.25
2023-04-13T07:25:21.921Z,1.45
2023-04-13T07:26:33.408Z,1.00
2023-04-13T07:27:44.821Z,2.17
2023-04-13T07:28:58.518Z,1.90
2023-04-13T07:30:12.555Z,1.85
2023-04-13T07:31:24.046Z,1.45
2023-04-13T07:32:35.890Z,1.38
2023-04-13T07:33:50.078Z,1.80
2023-04-13T07:35:02.280Z,1.13
2023-04-13T07:36:15.938Z,0.93
2023-04-13T07:37:27.723Z,1.23
2023-04-13T07:38:41.602Z,1.52
2023-04-13T07:39:55.266Z,1.58
2023-04-13T07:41:07.423Z,3.95
2023-04-13T07:42:21.276Z,1.88
2023-04-13T07:43:35.414Z,1.10
2023-04-13T07:44:46.899Z,1.23
2023-04-13T07:46:00.764Z,0.98
2023-04-13T07:47:14.777Z,1.30
2023-04-13T07:48:28.594Z,1.50
2023-04-13T07:49:40.094Z,1.90
2023-04-13T07:50:51.563Z,1.35
2023-04-13T07:52:06.370Z,1.38
2023-04-13T07:53:17.892Z,1.10
2023-04-13T07:54:29.332Z,1.00
2023-04-13T07:55:40.898Z,0.90
2023-04-13T07:56:52.764Z,0.80
2023-04-13T07:58:04.230Z,1.20
2023-04-13T07:59:15.881Z,1.10
2023-04-13T08:00:27.888Z,0.80
2023-04-13T08:01:39.395Z,1.25
2023-04-13T08:02:51.664Z,1.45
2023-04-13T08:04:03.431Z,1.30
2023-04-13T08:05:15.224Z,1.40
2023-04-13T08:06:32.122Z,1.30
2023-04-13T08:07:48.034Z,1.63
2023-04-13T08:09:01.829Z,1.40
2023-04-13T08:10:13.389Z,2.33
2023-04-13T08:11:24.951Z,1.50
2023-04-13T08:12:36.727Z,1.43
2023-04-13T08:13:48.282Z,1.47
2023-04-13T08:14:59.739Z,0.83
2023-04-13T08:16:11.622Z,1.30
2023-04-13T08:17:23.228Z,0.97
2023-04-13T08:18:36.217Z,1.50
2023-04-13T08:19:47.705Z,1.50
2023-04-13T08:20:59.317Z,1.10
2023-04-13T08:22:13.435Z,1.10
2023-04-13T08:23:26.624Z,0.87
2023-04-13T08:24:38.100Z,1.00
2023-04-13T08:25:49.528Z,1.20
2023-04-13T08:27:00.972Z,1.20
2023-04-13T08:28:13.205Z,0.70
2023-04-13T08:29:25.097Z,0.87
2023-04-13T08:30:37.141Z,1.00
2023-04-13T08:31:48.601Z,1.53
2023-04-13T08:33:00.161Z,1.10
2023-04-13T08:34:16.817Z,0.90
2023-04-13T08:35:28.500Z,1.37
2023-04-13T08:36:47.916Z,1.60
2023-04-13T08:38:02.648Z,0.97
2023-04-13T08:39:16.709Z,1.37
2023-04-13T08:40:28.640Z,1.00
2023-04-13T08:41:44.096Z,1.10
2023-04-13T08:42:56.977Z,0.90
2023-04-13T08:44:08.775Z,1.00
2023-04-13T08:45:23.402Z,1.33
2023-04-13T08:46:34.951Z,0.90
2023-04-13T08:47:46.922Z,1.40
2023-04-13T08:49:08.751Z,1.60
2023-04-13T08:50:24.192Z,0.77
2023-04-13T08:51:38.440Z,1.03
2023-04-13T08:52:50.500Z,1.50
2023-04-13T08:54:04.512Z,0.83
2023-04-13T08:55:18.590Z,1.00
2023-04-13T08:56:42.785Z,1.23
2023-04-13T08:58:00.741Z,1.00
2023-04-13T08:59:12.997Z,1.03
2023-04-13T09:00:28.297Z,1.40
2023-04-13T09:01:44.013Z,1.10
2023-04-13T09:03:04.916Z,0.87
2023-04-13T09:05:48.596Z,0.60
2023-04-13T09:07:00.883Z,1.43
2023-04-13T09:08:14.461Z,1.50
2023-04-13T09:09:28.667Z,0.90
2023-04-13T09:10:41.003Z,0.80
2023-04-13T09:11:57.907Z,0.83
2023-04-13T09:13:11.906Z,1.00
2023-04-13T09:14:24.088Z,1.67
2023-04-13T09:15:35.768Z,1.90
2023-04-13T09:16:47.760Z,1.30
2023-04-13T09:18:11.403Z,1.40
2023-04-13T09:19:36.786Z,1.40
2023-04-13T09:21:00.154Z,0.93
2023-04-13T09:22:17.573Z,1.03
2023-04-13T09:23:31.324Z,0.70
2023-04-13T09:24:43.939Z,1.50
2023-04-13T09:26:13.239Z,1.47
2023-04-13T09:27:27.051Z,0.97
2023-04-13T09:28:50.465Z,2.40
2023-04-13T09:30:02.406Z,1.13
2023-04-13T09:31:14.132Z,1.40
2023-04-13T09:32:26.564Z,1.20
2023-04-13T09:33:47.241Z,1.17
2023-04-13T09:35:01.022Z,1.20
2023-04-13T09:36:13.753Z,0.80
2023-04-13T09:37:30.237Z,0.93
2023-04-13T09:38:45.922Z,0.80
2023-04-13T09:40:10.208Z,0.70
2023-04-13T09:41:43.051Z,1.40
2023-04-13T09:42:55.939Z,1.10
2023-04-13T09:44:32.996Z,1.50
2023-04-13T09:45:48.822Z,1.20
2023-04-13T09:47:03.016Z,0.80
2023-04-13T09:48:23.476Z,0.90
2023-04-13T09:49:39.970Z,1.07
2023-04-13T09:51:05.657Z,1.10
2023-04-13T09:52:24.268Z,1.10
2023-04-13T09:53:44.447Z,1.20
2023-04-13T09:54:58.788Z,0.90
2023-04-13T09:56:10.397Z,1.20
2023-04-13T09:57:31.432Z,1.30
2023-04-13T09:58:52.126Z,1.37
2023-04-13T10:00:10.138Z,1.20
2023-04-13T10:01:23.989Z,1.50
2023-04-13T10:02:38.248Z,1.53
2023-04-13T10:03:51.870Z,1.80
2023-04-13T10:05:05.825Z,1.20
2023-04-13T10:06:17.833Z,1.50
2023-04-13T10:07:30.818Z,1.53
2023-04-13T10:08:43.096Z,1.97
2023-04-13T10:09:54.615Z,1.63
2023-04-13T10:11:13.455Z,1.80
2023-04-13T10:12:27.538Z,2.00
2023-04-13T10:14:00.869Z,1.83
2023-04-13T10:15:25.890Z,1.30
2023-04-13T10:16:38.664Z,1.40
2023-04-13T10:17:53.702Z,1.40
2023-04-13T10:19:09.193Z,1.20
2023-04-13T10:20:21.813Z,1.13
2023-04-13T10:21:36.897Z,1.40
2023-04-13T10:22:50.140Z,1.10
2023-04-13T10:24:11.300Z,1.80
2023-04-13T10:25:32.828Z,1.10
2023-04-13T10:26:45.589Z,1.37
2023-04-13T10:28:02.363Z,1.17
2023-04-13T10:29:16.783Z,1.20
2023-04-13T10:30:29.702Z,1.10
2023-04-13T10:31:42.791Z,1.00
2023-04-13T10:33:08.191Z,1.57
2023-04-13T10:34:29.214Z,1.30
2023-04-13T10:35:43.524Z,1.10
2023-04-13T10:37:00.660Z,1.10
2023-04-13T10:38:16.085Z,0.80
2023-04-13T10:39:30.591Z,1.30
2023-04-13T10:40:45.161Z,1.10
2023-04-13T10:42:05.335Z,0.90
2023-04-13T10:43:32.168Z,1.17
2023-04-13T10:44:49.486Z,1.13
2023-04-13T10:46:14.325Z,1.10
2023-04-13T10:47:35.890Z,1.00
2023-04-13T10:48:59.242Z,1.20
2023-04-13T10:50:18.188Z,1.00
2023-04-13T10:51:43.962Z,1.20
2023-04-13T10:53:00.227Z,1.27
2023-04-13T10:54:19.491Z,1.03
2023-04-13T10:55:32.835Z,1.30
2023-04-13T10:57:02.659Z,1.17
2023-04-13T10:58:26.918Z,1.63
2023-04-13T10:59:55.548Z,1.47
2023-04-13T11:01:12.917Z,1.30
2023-04-13T11:02:34.103Z,0.90
2023-04-13T11:04:00.745Z,0.90
2023-04-13T11:05:22.547Z,1.10
2023-04-13T11:06:43.142Z,1.47
2023-04-13T11:07:55.810Z,1.43
2023-04-13T11:09:09.334Z,0.90
2023-04-13T11:10:26.151Z,1.33
2023-04-13T11:11:40.419Z,1.57
2023-04-13T11:12:55.100Z,1.60
2023-04-13T11:14:19.357Z,1.00
2023-04-13T11:15:35.719Z,1.30
2023-04-13T11:16:51.200Z,1.10
2023-04-13T11:18:10.079Z,0.87
2023-04-13T11:19:33.423Z,1.17
2023-04-13T11:20:44.858Z,1.40
2023-04-13T11:21:58.170Z,1.17
2023-04-13T11:23:20.469Z,1.40
2023-04-13T11:24:34.277Z,1.93
2023-04-13T11:26:05.245Z,1.10
2023-04-13T11:27:20.280Z,1.03
2023-04-13T11:28:42.501Z,1.37
2023-04-13T11:29:59.959Z,1.03
2023-04-13T11:31:17.509Z,1.40
2023-04-13T11:32:29.050Z,1.00
2023-04-13T11:33:42.599Z,0.90
2023-04-13T11:35:04.380Z,1.00
2023-04-13T11:36:17.096Z,1.87
2023-04-13T11:37:28.582Z,1.40
2023-04-13T11:38:41.708Z,1.20
2023-04-13T11:39:58.150Z,1.53
2023-04-13T11:41:15.952Z,1.93
2023-04-13T11:42:28.362Z,1.93
2023-04-13T11:43:41.941Z,1.20
2023-04-13T11:44:55.738Z,1.10
2023-04-13T11:46:12.930Z,1.10
2023-04-13T11:47:25.623Z,1.20
2023-04-13T11:48:37.853Z,1.33
2023-04-13T11:49:51.701Z,1.40
2023-04-13T11:51:05.771Z,1.73
2023-04-13T11:52:23.487Z,1.87
2023-04-13T11:53:40.446Z,1.30
2023-04-13T11:54:54.233Z,0.90
2023-04-13T11:56:10.647Z,1.00
2023-04-13T11:57:22.388Z,0.90
2023-04-13T12:00:13.218Z,1.87
2023-04-13T12:01:29.962Z,3.70
2023-04-13T12:03:00.035Z,1.27
2023-04-13T12:04:18.293Z,1.37
2023-04-13T12:05:32.473Z,1.50
2023-04-13T12:06:47.961Z,1.33
2023-04-13T12:08:00.789Z,0.80
2023-04-13T12:09:17.632Z,1.10
2023-04-13T12:10:40.164Z,1.43
2023-04-13T12:12:25.090Z,1.40
2023-04-13T12:15:14.049Z,1.50
2023-04-13T12:17:01.800Z,1.43
2023-04-13T12:18:14.350Z,1.00
2023-04-13T12:19:28.077Z,1.20
2023-04-13T12:20:54.542Z,1.37
2023-04-13T12:22:09.704Z,1.10
2023-04-13T12:23:24.311Z,1.00
2023-04-13T12:24:38.294Z,1.03
2023-04-13T12:26:40.617Z,1.10
2023-04-13T12:27:44.423Z,1.50
2023-04-13T12:28:57.309Z,1.37
2023-04-13T12:30:15.784Z,1.20
2023-04-13T12:31:32.569Z,1.03
2023-04-13T12:32:47.786Z,0.90
2023-04-13T12:34:01.555Z,1.00
2023-04-13T12:35:14.050Z,1.30
2023-04-13T12:36:35.875Z,1.20
2023-04-13T12:37:48.064Z,0.97
2023-04-13T12:38:59.804Z,1.40
2023-04-13T12:40:23.370Z,1.37
2023-04-13T12:41:35.130Z,1.20
2023-04-13T12:42:49.146Z,2.40
2023-04-13T12:44:01.483Z,1.93
2023-04-13T12:45:16.720Z,1.13
2023-04-13T12:46:29.060Z,1.30
2023-04-13T12:47:53.659Z,1.00
2023-04-13T12:49:05.222Z,1.07
2023-04-13T12:50:20.707Z,1.20
2023-04-13T12:51:34.309Z,1.67
2023-04-13T12:52:46.125Z,1.30
2023-04-13T12:53:59.978Z,1.20
2023-04-13T12:55:21.062Z,1.30
2023-04-13T12:56:33.650Z,1.20
2023-04-13T12:57:56.112Z,1.30
2023-04-13T12:59:08.681Z,1.10
2023-04-13T13:00:24.021Z,1.20
2023-04-13T13:01:41.474Z,1.20
2023-04-13T13:03:06.100Z,1.30
2023-04-13T13:04:27.445Z,1.07
2023-04-13T13:05:41.505Z,1.50
2023-04-13T13:06:55.336Z,1.13
2023-04-13T13:08:11.150Z,1.20
2023-04-13T13:09:25.803Z,1.40
2023-04-13T13:10:37.844Z,1.07
2023-04-13T13:11:49.438Z,1.30
2023-04-13T13:13:09.300Z,1.40
2023-04-13T13:14:20.860Z,1.33
2023-04-13T13:15:33.001Z,1.30
2023-04-13T13:16:44.620Z,1.30
2023-04-13T13:18:00.932Z,1.67
2023-04-13T13:19:12.466Z,1.23
2023-04-13T13:20:24.173Z,1.40
2023-04-13T13:21:38.166Z,1.60
2023-04-13T13:22:54.524Z,1.50
2023-04-13T13:24:07.645Z,1.50
2023-04-13T13:25:19.399Z,1.23
2023-04-13T13:26:41.722Z,1.63
2023-04-13T13:28:14.280Z,1.43
2023-04-13T13:29:28.363Z,1.17
2023-04-13T13:30:59.798Z,1.20
2023-04-13T13:32:11.311Z,1.10
2023-04-13T13:33:25.180Z,1.40
2023-04-13T13:34:40.561Z,1.27
2023-04-13T13:35:54.693Z,1.30
2023-04-13T13:37:10.144Z,0.97
2023-04-13T13:38:24.469Z,1.67
2023-04-13T13:39:36.033Z,1.10
2023-04-13T13:40:47.570Z,1.20
2023-04-13T13:41:59.228Z,1.40
2023-04-13T13:43:13.972Z,1.10
2023-04-13T13:44:30.164Z,1.30
2023-04-13T13:45:41.888Z,1.30
2023-04-13T13:46:56.903Z,1.17
2023-04-13T13:48:11.826Z,1.30
2023-04-13T13:49:29.438Z,1.30
2023-04-13T13:50:42.928Z,1.50
2023-04-13T13:51:54.418Z,1.30
2023-04-13T13:53:06.090Z,1.10
2023-04-13T13:54:17.923Z,1.27
2023-04-13T13:55:32.219Z,1.03
2023-04-13T13:56:50.538Z,0.90
2023-04-13T13:58:04.418Z,1.20
2023-04-13T13:59:18.257Z,1.00
2023-04-13T14:00:29.901Z,1.20
2023-04-13T14:01:46.178Z,0.90
2023-04-13T14:02:57.927Z,1.30
2023-04-13T14:04:09.612Z,1.20
2023-04-13T14:05:22.293Z,1.20
2023-04-13T14:08:02.668Z,1.00
2023-04-13T14:09:22.437Z,0.83
2023-04-13T14:10:38.952Z,1.10
2023-04-13T14:11:50.933Z,1.30
2023-04-13T14:13:08.577Z,1.50
2023-04-13T14:14:22.398Z,1.07
2023-04-13T14:15:34.267Z,1.07
2023-04-13T14:16:46.226Z,1.13
2023-04-13T14:18:08.995Z,1.10
2023-04-13T14:19:22.701Z,1.43
2023-04-13T14:20:39.058Z,1.10
2023-04-13T14:21:53.978Z,1.10
2023-04-13T14:23:05.524Z,1.10
2023-04-13T14:24:19.226Z,1.30
2023-04-13T14:25:32.958Z,1.30
2023-04-13T14:26:46.680Z,1.00
2023-04-13T14:28:01.057Z,1.10
2023-04-13T14:29:12.712Z,0.80
2023-04-13T14:30:26.254Z,1.13
2023-04-13T14:31:39.193Z,1.20
2023-04-13T14:32:53.811Z,1.17
2023-04-13T14:34:05.266Z,0.90
2023-04-13T14:35:17.969Z,1.20
2023-04-13T14:36:31.081Z,2.30
2023-04-13T14:37:42.643Z,1.00
2023-04-13T14:38:56.225Z,1.03
2023-04-13T14:40:25.861Z,1.10
2023-04-13T14:41:38.516Z,1.30
2023-04-13T14:42:58.527Z,1.10
2023-04-13T14:44:09.987Z,1.10
2023-04-13T14:45:21.911Z,1.00
2023-04-13T14:46:34.358Z,1.20
2023-04-13T14:47:46.001Z,1.10
2023-04-13T14:49:04.815Z,1.17
2023-04-13T14:50:19.640Z,1.10
2023-04-13T14:51:36.208Z,1.23
2023-04-13T14:52:49.178Z,1.30
2023-04-13T14:54:00.942Z,1.70
2023-04-13T14:55:13.822Z,1.10
2023-04-13T14:56:28.313Z,1.23
2023-04-13T14:57:48.130Z,1.27
2023-04-13T14:59:01.283Z,1.00
2023-04-13T15:00:22.022Z,0.80
2023-04-13T15:01:36.073Z,1.47
2023-04-13T15:02:48.908Z,0.87
2023-04-13T15:04:05.245Z,1.23
2023-04-13T15:05:18.295Z,1.13
2023-04-13T15:06:31.213Z,0.80
2023-04-13T15:07:50.244Z,0.80
2023-04-13T15:09:03.146Z,1.60
2023-04-13T15:10:16.318Z,1.30
2023-04-13T15:11:29.142Z,1.00
2023-04-13T15:12:41.427Z,1.30
2023-04-13T15:13:52.992Z,1.10
2023-04-13T15:15:10.810Z,1.63
2023-04-13T15:16:22.354Z,0.93
2023-04-13T15:17:35.946Z,1.47
2023-04-13T15:18:47.549Z,1.30
2023-04-13T15:20:02.309Z,1.37
2023-04-13T15:21:15.683Z,1.10
2023-04-13T15:22:29.781Z,1.00
2023-04-13T15:23:44.725Z,1.10
2023-04-13T15:24:56.244Z,1.17
2023-04-13T15:26:07.692Z,1.40
2023-04-13T15:27:20.599Z,1.07
2023-04-13T15:28:33.440Z,0.77
2023-04-13T15:29:44.911Z,1.00
2023-04-13T15:30:56.462Z,1.33
2023-04-13T15:32:08.299Z,0.97
2023-04-13T15:33:21.706Z,1.33
2023-04-13T15:34:35.370Z,1.30
2023-04-13T15:35:53.405Z,1.23
2023-04-13T15:37:04.937Z,1.60
2023-04-13T15:38:18.608Z,1.47
2023-04-13T15:39:30.262Z,0.93
2023-04-13T15:40:45.656Z,1.70
2023-04-13T15:42:00.465Z,1.17
2023-04-13T15:43:11.990Z,1.30
2023-04-13T15:44:23.545Z,1.07
2023-04-13T15:45:35.131Z,1.60
2023-04-13T15:46:48.546Z,3.00
2023-04-13T15:48:00.215Z,2.77
2023-04-13T15:49:11.773Z,1.50
2023-04-13T15:50:25.045Z,1.10
2023-04-13T15:51:38.597Z,1.87
2023-04-13T15:52:50.053Z,1.30
2023-04-13T15:54:02.725Z,1.07
2023-04-13T15:55:14.616Z,1.33
2023-04-13T15:56:26.625Z,1.20
2023-04-13T15:57:38.180Z,2.30
2023-04-13T15:58:50.052Z,2.10
2023-04-13T16:00:08.934Z,1.60
2023-04-13T16:01:22.772Z,1.97
2023-04-13T16:02:34.734Z,4.53
2023-04-13T16:03:50.019Z,10.40
2023-04-13T16:05:01.872Z,1.97
2023-04-13T16:06:15.404Z,3.10
2023-04-13T16:07:27.182Z,6.97
2023-04-13T16:08:41.697Z,1.73
2023-04-13T16:10:01.685Z,12.00
2023-04-13T16:11:13.287Z,21.20
2023-04-13T16:12:34.230Z,8.10
2023-04-13T16:13:51.187Z,7.50
2023-04-13T16:15:06.274Z,3.20
2023-04-13T16:16:18.406Z,2.23
2023-04-13T16:17:33.603Z,1.70
2023-04-13T16:18:45.209Z,1.70
2023-04-13T16:20:15.683Z,1.67
2023-04-13T16:21:30.357Z,1.77
2023-04-13T16:22:42.287Z,2.03
2023-04-13T16:23:54.371Z,1.70
2023-04-13T16:25:06.871Z,1.60
2023-04-13T16:26:20.404Z,1.40
2023-04-13T16:27:36.650Z,1.80
2023-04-13T16:28:48.104Z,4.50
2023-04-13T16:29:59.942Z,5.43
2023-04-13T16:31:14.529Z,5.77
2023-04-13T16:32:26.162Z,4.90
2023-04-13T16:33:39.969Z,3.73
2023-04-13T16:34:52.800Z,4.70
2023-04-13T16:36:04.420Z,4.00
2023-04-13T16:37:16.314Z,3.27